createdAt,value
2016-12-10T00:00:22.127Z,1019.35
2016-12-10T00:01:22.132Z,1019.36
2016-12-10T00:02:22.139Z,1019.34
2016-12-10T00:03:22.146Z,1019.28
2016-12-10T00:04:23.154Z,1019.29
2016-12-10T00:05:22.160Z,1019.29
2016-12-10T00:06:22.166Z,1019.28
2016-12-10T00:07:22.173Z,1019.23
2016-12-10T00:08:22.179Z,1019.23
2016-12-10T00:09:22.183Z,1019.17
2016-12-10T00:10:22.192Z,1019.19
2016-12-10T00:11:22.199Z,1019.14
2016-12-10T00:12:22.205Z,1019.16
2016-12-10T00:13:22.211Z,1019.15
2016-12-10T00:14:22.219Z,1019.15
2016-12-10T00:15:22.225Z,1019.12
2016-12-10T00:16:22.231Z,1019.08
2016-12-10T00:17:22.239Z,1019.09
2016-12-10T00:18:22.245Z,1019.08
2016-12-10T00:19:22.302Z,1019.13
2016-12-10T00:20:22.259Z,1019.08
2016-12-10T00:21:22.265Z,1019.1
2016-12-10T00:22:22.272Z,1019.09
2016-12-10T00:23:22.278Z,1019.13
2016-12-10T00:24:22.283Z,1019.11
2016-12-10T00:25:22.291Z,1019.17
2016-12-10T00:26:22.349Z,1019.17
2016-12-10T00:27:22.305Z,1019.17
2016-12-10T00:28:22.311Z,1019.21
2016-12-10T00:29:22.319Z,1019.18
2016-12-10T00:30:22.327Z,1019.23
2016-12-10T00:31:22.340Z,1019.24
2016-12-10T00:32:22.338Z,1019.23
2016-12-10T00:33:22.345Z,1019.29
2016-12-10T00:34:22.352Z,1019.25
2016-12-10T00:35:22.708Z,1019.28
2016-12-10T00:36:22.365Z,1019.31
2016-12-10T00:37:22.369Z,1019.24
2016-12-10T00:38:22.377Z,1019.26
2016-12-10T00:39:22.384Z,1019.26
2016-12-10T00:40:22.392Z,1019.3
2016-12-10T00:41:22.398Z,1019.19
2016-12-10T00:42:22.404Z,1019.19
2016-12-10T00:43:22.411Z,1019.21
2016-12-10T00:44:22.418Z,1019.19
2016-12-10T00:45:22.426Z,1019.13
2016-12-10T00:46:23.534Z,1019.1
2016-12-10T00:47:22.439Z,1019.08
2016-12-10T00:48:22.445Z,1019.01
2016-12-10T00:49:22.451Z,1019.03
2016-12-10T00:50:22.459Z,1019.02
2016-12-10T00:51:22.517Z,1018.96
2016-12-10T00:52:22.473Z,1018.93
2016-12-10T00:53:22.478Z,1018.92
2016-12-10T00:54:22.483Z,1018.87
2016-12-10T00:55:22.492Z,1018.89
2016-12-10T00:56:22.500Z,1018.91
2016-12-10T00:57:22.503Z,1018.92
2016-12-10T00:58:22.511Z,1018.92
2016-12-10T00:59:22.519Z,1018.97
2016-12-10T01:00:22.525Z,1018.91
2016-12-10T01:01:22.532Z,1018.89
2016-12-10T01:02:22.539Z,1018.89
2016-12-10T01:03:22.546Z,1018.93
2016-12-10T01:04:22.552Z,1018.88
2016-12-10T01:05:22.558Z,1018.91
2016-12-10T01:06:22.567Z,1018.92
2016-12-10T01:07:22.573Z,1018.93
2016-12-10T01:08:22.576Z,1018.97
2016-12-10T01:09:22.584Z,1018.98
2016-12-10T01:10:22.592Z,1018.95
2016-12-10T01:11:22.647Z,1018.96
2016-12-10T01:12:22.603Z,1018.98
2016-12-10T01:13:22.611Z,1018.98
2016-12-10T01:14:22.619Z,1018.96
2016-12-10T01:15:22.623Z,1018.93
2016-12-10T01:16:22.631Z,1018.93
2016-12-10T01:17:22.638Z,1018.93
2016-12-10T01:18:22.696Z,1018.93
2016-12-10T01:19:22.652Z,1018.95
2016-12-10T01:20:22.658Z,1018.96
2016-12-10T01:21:22.663Z,1019
2016-12-10T01:22:22.670Z,1018.99
2016-12-10T01:23:22.677Z,1019.01
2016-12-10T01:24:22.684Z,1019.01
2016-12-10T01:25:22.691Z,1019.01
2016-12-10T01:26:22.697Z,1019.01
2016-12-10T01:27:22.703Z,1019.04
2016-12-10T01:28:22.710Z,1019.03
2016-12-10T01:29:22.715Z,1019.06
2016-12-10T01:30:22.722Z,1018.98
2016-12-10T01:31:22.730Z,1018.98
2016-12-10T01:32:22.788Z,1018.95
2016-12-10T01:33:22.826Z,1018.96
2016-12-10T01:34:22.749Z,1018.91
2016-12-10T01:35:22.756Z,1018.97
2016-12-10T01:36:22.764Z,1018.89
2016-12-10T01:37:22.770Z,1018.93
2016-12-10T01:38:22.777Z,1018.91
2016-12-10T01:39:22.782Z,1018.88
2016-12-10T01:40:22.787Z,1018.87
2016-12-10T01:41:22.795Z,1018.88
2016-12-10T01:42:22.801Z,1018.79
2016-12-10T01:43:23.457Z,1018.84
2016-12-10T01:44:22.813Z,1018.85
2016-12-10T01:45:22.821Z,1018.82
2016-12-10T01:46:22.828Z,1018.8
2016-12-10T01:47:22.835Z,1018.79
2016-12-10T01:48:22.840Z,1018.75
2016-12-10T01:49:22.846Z,1018.74
2016-12-10T01:50:22.903Z,1018.77
2016-12-10T01:51:22.860Z,1018.77
2016-12-10T01:52:22.866Z,1018.73
2016-12-10T01:53:22.873Z,1018.72
2016-12-10T01:54:22.881Z,1018.69
2016-12-10T01:55:22.885Z,1018.74
2016-12-10T01:56:22.892Z,1018.7
2016-12-10T01:57:22.898Z,1018.8
2016-12-10T01:58:22.905Z,1018.71
2016-12-10T01:59:22.912Z,1018.71
2016-12-10T02:00:22.917Z,1018.69
2016-12-10T02:01:22.924Z,1018.68
2016-12-10T02:02:22.930Z,1018.66
2016-12-10T02:03:23.187Z,1018.63
2016-12-10T02:04:22.944Z,1018.67
2016-12-10T02:05:22.951Z,1018.66
2016-12-10T02:06:22.957Z,1018.65
2016-12-10T02:07:22.963Z,1018.63
2016-12-10T02:08:22.970Z,1018.64
2016-12-10T02:09:22.977Z,1018.61
2016-12-10T02:10:22.982Z,1018.58
2016-12-10T02:11:23.040Z,1018.55
2016-12-10T02:12:22.996Z,1018.6
2016-12-10T02:13:23.001Z,1018.56
2016-12-10T02:14:23.657Z,1018.57
2016-12-10T02:15:23.016Z,1018.57
2016-12-10T02:16:23.022Z,1018.58
2016-12-10T02:17:23.027Z,1018.54
2016-12-10T02:18:23.034Z,1018.54
2016-12-10T02:19:23.041Z,1018.53
2016-12-10T02:20:23.048Z,1018.53
2016-12-10T02:21:23.054Z,1018.49
2016-12-10T02:22:23.060Z,1018.53
2016-12-10T02:23:23.066Z,1018.54
2016-12-10T02:24:23.072Z,1018.48
2016-12-10T02:25:24.230Z,1018.46
2016-12-10T02:26:23.086Z,1018.48
2016-12-10T02:27:23.093Z,1018.51
2016-12-10T02:28:23.098Z,1018.53
2016-12-10T02:29:23.104Z,1018.5
2016-12-10T02:30:23.111Z,1018.48
2016-12-10T02:31:23.117Z,1018.48
2016-12-10T02:32:23.124Z,1018.53
2016-12-10T02:33:23.131Z,1018.48
2016-12-10T02:34:23.187Z,1018.55
2016-12-10T02:35:23.143Z,1018.51
2016-12-10T02:36:23.149Z,1018.49
2016-12-10T02:37:23.156Z,1018.49
2016-12-10T02:38:23.162Z,1018.44
2016-12-10T02:39:23.167Z,1018.45
2016-12-10T02:40:23.174Z,1018.46
2016-12-10T02:41:23.180Z,1018.41
2016-12-10T02:42:23.187Z,1018.42
2016-12-10T02:43:23.243Z,1018.38
2016-12-10T02:44:23.199Z,1018.39
2016-12-10T02:45:23.204Z,1018.36
2016-12-10T02:46:23.212Z,1018.41
2016-12-10T02:47:23.218Z,1018.35
2016-12-10T02:48:23.225Z,1018.37
2016-12-10T02:49:23.231Z,1018.31
2016-12-10T02:50:23.235Z,1018.36
2016-12-10T02:51:23.243Z,1018.36
2016-12-10T02:52:23.247Z,1018.32
2016-12-10T02:53:23.256Z,1018.33
2016-12-10T02:54:23.261Z,1018.28
2016-12-10T02:55:23.269Z,1018.28
2016-12-10T02:56:23.276Z,1018.22
2016-12-10T02:57:23.280Z,1018.23
2016-12-10T02:58:23.287Z,1018.21
2016-12-10T02:59:23.293Z,1018.16
2016-12-10T03:00:23.300Z,1018.15
2016-12-10T03:01:23.305Z,1018.16
2016-12-10T03:02:23.362Z,1018.1
2016-12-10T03:03:23.319Z,1018.05
2016-12-10T03:04:23.325Z,1018.11
2016-12-10T03:05:23.330Z,1018.03
2016-12-10T03:06:23.338Z,1018.02
2016-12-10T03:07:23.345Z,1017.99
2016-12-10T03:08:23.350Z,1018.02
2016-12-10T03:09:23.356Z,1018.04
2016-12-10T03:10:23.363Z,1018.08
2016-12-10T03:11:23.370Z,1018.04
2016-12-10T03:12:23.375Z,1017.98
2016-12-10T03:13:23.381Z,1017.93
2016-12-10T03:14:23.388Z,1017.92
2016-12-10T03:15:23.394Z,1017.89
2016-12-10T03:16:23.400Z,1017.92
2016-12-10T03:17:23.407Z,1017.97
2016-12-10T03:18:23.413Z,1017.94
2016-12-10T03:19:23.418Z,1017.89
2016-12-10T03:20:23.426Z,1017.92
2016-12-10T03:21:23.481Z,1017.88
2016-12-10T03:22:23.689Z,1017.92
2016-12-10T03:23:23.442Z,1017.83
2016-12-10T03:24:23.450Z,1017.79
2016-12-10T03:25:23.459Z,1017.8
2016-12-10T03:26:23.462Z,1017.79
2016-12-10T03:27:23.470Z,1017.77
2016-12-10T03:28:23.525Z,1017.81
2016-12-10T03:29:23.483Z,1017.76
2016-12-10T03:30:23.488Z,1017.72
2016-12-10T03:31:23.499Z,1017.64
2016-12-10T03:32:23.501Z,1017.65
2016-12-10T03:33:24.208Z,1017.63
2016-12-10T03:34:23.514Z,1017.67
2016-12-10T03:35:23.521Z,1017.67
2016-12-10T03:36:23.527Z,1017.58
2016-12-10T03:37:23.532Z,1017.55
2016-12-10T03:38:23.540Z,1017.54
2016-12-10T03:39:23.544Z,1017.53
2016-12-10T03:40:23.562Z,1017.55
2016-12-10T03:41:23.558Z,1017.54
2016-12-10T03:42:23.564Z,1017.55
2016-12-10T03:43:23.570Z,1017.49
2016-12-10T03:44:24.478Z,1017.5
2016-12-10T03:45:23.583Z,1017.46
2016-12-10T03:46:23.638Z,1017.45
2016-12-10T03:47:23.597Z,1017.46
2016-12-10T03:48:23.600Z,1017.45
2016-12-10T03:49:23.610Z,1017.46
2016-12-10T03:50:23.613Z,1017.45
2016-12-10T03:51:23.618Z,1017.45
2016-12-10T03:52:23.625Z,1017.43
2016-12-10T03:53:23.631Z,1017.38
2016-12-10T03:54:23.638Z,1017.39
2016-12-10T03:55:23.644Z,1017.31
2016-12-10T03:56:23.653Z,1017.31
2016-12-10T03:57:23.655Z,1017.3
2016-12-10T03:58:23.662Z,1017.26
2016-12-10T03:59:23.666Z,1017.32
2016-12-10T04:00:23.673Z,1017.36
2016-12-10T04:01:23.679Z,1017.36
2016-12-10T04:02:23.687Z,1017.37
2016-12-10T04:03:23.702Z,1017.32
2016-12-10T04:04:24.049Z,1017.34
2016-12-10T04:05:23.704Z,1017.33
2016-12-10T04:06:23.712Z,1017.37
2016-12-10T04:07:23.716Z,1017.37
2016-12-10T04:08:23.724Z,1017.35
2016-12-10T04:09:23.729Z,1017.47
2016-12-10T04:10:23.735Z,1017.37
2016-12-10T04:11:23.741Z,1017.37
2016-12-10T04:12:23.747Z,1017.34
2016-12-10T04:13:23.754Z,1017.37
2016-12-10T04:14:23.759Z,1017.36
2016-12-10T04:15:24.617Z,1017.37
2016-12-10T04:16:23.784Z,1017.39
2016-12-10T04:17:23.778Z,1017.35
2016-12-10T04:18:23.784Z,1017.32
2016-12-10T04:19:23.812Z,1017.23
2016-12-10T04:20:23.796Z,1017.27
2016-12-10T04:21:23.803Z,1017.22
2016-12-10T04:22:23.809Z,1017.17
2016-12-10T04:23:23.866Z,1017.17
2016-12-10T04:24:23.821Z,1017.22
2016-12-10T04:25:23.827Z,1017.1
2016-12-10T04:26:23.833Z,1017.14
2016-12-10T04:27:23.840Z,1017.18
2016-12-10T04:28:23.844Z,1017.15
2016-12-10T04:29:23.852Z,1017.12
2016-12-10T04:30:23.857Z,1017.13
2016-12-10T04:31:23.866Z,1017.17
2016-12-10T04:32:23.870Z,1017.13
2016-12-10T04:33:23.878Z,1017.19
2016-12-10T04:34:23.883Z,1017.17
2016-12-10T04:35:24.140Z,1017.13
2016-12-10T04:36:23.894Z,1017.15
2016-12-10T04:37:23.902Z,1017.15
2016-12-10T04:38:23.907Z,1017.11
2016-12-10T04:39:23.914Z,1017.16
2016-12-10T04:40:23.921Z,1017.09
2016-12-10T04:41:23.928Z,1017.07
2016-12-10T04:42:23.934Z,1017.15
2016-12-10T04:43:23.939Z,1017.15
2016-12-10T04:44:23.945Z,1017.2
2016-12-10T04:45:24.001Z,1017.16
2016-12-10T04:46:24.559Z,1017.18
2016-12-10T04:47:23.965Z,1017.17
2016-12-10T04:48:23.972Z,1017.17
2016-12-10T04:49:23.977Z,1017.17
2016-12-10T04:50:23.982Z,1017.16
2016-12-10T04:51:23.989Z,1017.18
2016-12-10T04:52:23.996Z,1017.19
2016-12-10T04:53:24.002Z,1017.18
2016-12-10T04:54:24.007Z,1017.13
2016-12-10T04:55:24.014Z,1017.19
2016-12-10T04:56:24.019Z,1017.16
2016-12-10T04:57:25.141Z,1017.2
2016-12-10T04:58:24.033Z,1017.23
2016-12-10T04:59:24.039Z,1017.22
2016-12-10T05:00:24.046Z,1017.21
2016-12-10T05:01:24.051Z,1017.25
2016-12-10T05:02:24.058Z,1017.21
2016-12-10T05:03:24.064Z,1017.29
2016-12-10T05:04:24.070Z,1017.25
2016-12-10T05:05:24.077Z,1017.29
2016-12-10T05:06:24.083Z,1017.3
2016-12-10T05:07:24.089Z,1017.28
2016-12-10T05:08:24.346Z,1017.31
2016-12-10T05:09:24.100Z,1017.32
2016-12-10T05:10:24.108Z,1017.31
2016-12-10T05:11:24.115Z,1017.23
2016-12-10T05:12:24.170Z,1017.28
2016-12-10T05:13:24.126Z,1017.25
2016-12-10T05:14:24.132Z,1017.23
2016-12-10T05:15:24.139Z,1017.19
2016-12-10T05:16:24.146Z,1017.2
2016-12-10T05:17:24.202Z,1017.2
2016-12-10T05:18:24.157Z,1017.2
2016-12-10T05:19:24.165Z,1017.18
2016-12-10T05:20:24.170Z,1017.14
2016-12-10T05:21:24.177Z,1017.1
2016-12-10T05:22:24.188Z,1017.13
2016-12-10T05:23:24.690Z,1017.12
2016-12-10T05:24:24.243Z,1017.08
2016-12-10T05:25:24.202Z,1017.09
2016-12-10T05:26:24.208Z,1017.08
2016-12-10T05:27:24.213Z,1017.11
2016-12-10T05:28:24.221Z,1017.11
2016-12-10T05:29:24.226Z,1017.11
2016-12-10T05:30:24.233Z,1017.11
2016-12-10T05:31:24.236Z,1017.16
2016-12-10T05:32:24.250Z,1017.22
2016-12-10T05:33:24.250Z,1017.15
2016-12-10T05:34:24.257Z,1017.06
2016-12-10T05:35:24.263Z,1017.06
2016-12-10T05:36:24.279Z,1017.01
2016-12-10T05:37:24.276Z,1017
2016-12-10T05:38:24.282Z,1016.98
2016-12-10T05:39:24.286Z,1016.94
2016-12-10T05:40:24.294Z,1016.94
2016-12-10T05:41:24.301Z,1016.97
2016-12-10T05:42:24.309Z,1016.94
2016-12-10T05:43:24.313Z,1016.97
2016-12-10T05:44:24.321Z,1016.93
2016-12-10T05:45:24.575Z,1016.99
2016-12-10T05:46:24.330Z,1016.99
2016-12-10T05:47:24.338Z,1017.08
2016-12-10T05:48:24.344Z,1017.13
2016-12-10T05:49:24.350Z,1017.11
2016-12-10T05:50:24.406Z,1017.1
2016-12-10T05:51:24.363Z,1017.11
2016-12-10T05:52:24.369Z,1017.07
2016-12-10T05:53:24.373Z,1017.16
2016-12-10T05:54:24.381Z,1017.11
2016-12-10T05:55:24.437Z,1017.02
2016-12-10T05:56:24.393Z,1017.07
2016-12-10T05:57:24.398Z,1017.12
2016-12-10T05:58:24.406Z,1017.13
2016-12-10T05:59:24.412Z,1017.09
2016-12-10T06:00:24.419Z,1017.03
2016-12-10T06:01:24.424Z,1017.11
2016-12-10T06:02:24.431Z,1017.09
2016-12-10T06:03:24.435Z,1017.12
2016-12-10T06:04:24.442Z,1017.16
2016-12-10T06:05:24.449Z,1017.16
2016-12-10T06:06:24.454Z,1017.2
2016-12-10T06:07:24.460Z,1017.24
2016-12-10T06:08:24.464Z,1017.25
2016-12-10T06:09:25.594Z,1017.27
2016-12-10T06:10:24.479Z,1017.21
2016-12-10T06:11:24.483Z,1017.24
2016-12-10T06:12:24.490Z,1017.22
2016-12-10T06:13:24.496Z,1017.23
2016-12-10T06:14:24.502Z,1017.24
2016-12-10T06:15:24.510Z,1017.26
2016-12-10T06:16:24.517Z,1017.21
2016-12-10T06:17:24.519Z,1017.17
2016-12-10T06:18:24.527Z,1017.21
2016-12-10T06:19:24.533Z,1017.25
2016-12-10T06:20:24.538Z,1017.22
2016-12-10T06:21:24.544Z,1017.23
2016-12-10T06:22:24.551Z,1017.26
2016-12-10T06:23:24.557Z,1017.29
2016-12-10T06:24:24.613Z,1017.31
2016-12-10T06:25:24.570Z,1017.35
2016-12-10T06:26:24.580Z,1017.38
2016-12-10T06:27:24.583Z,1017.42
2016-12-10T06:28:24.588Z,1017.46
2016-12-10T06:29:24.594Z,1017.46
2016-12-10T06:30:24.599Z,1017.48
2016-12-10T06:31:25.558Z,1017.56
2016-12-10T06:32:24.613Z,1017.57
2016-12-10T06:33:24.619Z,1017.52
2016-12-10T06:34:24.625Z,1017.51
2016-12-10T06:35:24.632Z,1017.52
2016-12-10T06:36:24.636Z,1017.57
2016-12-10T06:37:24.644Z,1017.6
2016-12-10T06:38:24.650Z,1017.66
2016-12-10T06:39:24.656Z,1017.64
2016-12-10T06:40:24.662Z,1017.58
2016-12-10T06:41:24.669Z,1017.5
2016-12-10T06:42:24.675Z,1017.57
2016-12-10T06:43:24.682Z,1017.59
2016-12-10T06:44:24.686Z,1017.55
2016-12-10T06:45:24.694Z,1017.55
2016-12-10T06:46:24.701Z,1017.53
2016-12-10T06:47:24.707Z,1017.53
2016-12-10T06:48:24.760Z,1017.61
2016-12-10T06:49:24.719Z,1017.66
2016-12-10T06:50:24.725Z,1017.63
2016-12-10T06:51:24.731Z,1017.64
2016-12-10T06:52:24.737Z,1017.6
2016-12-10T06:53:25.392Z,1017.61
2016-12-10T06:54:24.749Z,1017.6
2016-12-10T06:55:24.754Z,1017.65
2016-12-10T06:56:24.761Z,1017.62
2016-12-10T06:57:24.767Z,1017.63
2016-12-10T06:58:24.772Z,1017.66
2016-12-10T06:59:24.779Z,1017.68
2016-12-10T07:00:24.783Z,1017.68
2016-12-10T07:01:24.791Z,1017.73
2016-12-10T07:02:24.797Z,1017.68
2016-12-10T07:03:24.804Z,1017.67
2016-12-10T07:04:24.860Z,1017.67
2016-12-10T07:05:24.865Z,1017.64
2016-12-10T07:06:24.823Z,1017.66
2016-12-10T07:07:24.829Z,1017.7
2016-12-10T07:08:24.836Z,1017.69
2016-12-10T07:09:24.841Z,1017.63
2016-12-10T07:10:24.847Z,1017.61
2016-12-10T07:11:24.854Z,1017.58
2016-12-10T07:12:24.858Z,1017.67
2016-12-10T07:13:24.864Z,1017.72
2016-12-10T07:14:24.871Z,1017.64
2016-12-10T07:15:25.029Z,1017.67
2016-12-10T07:16:24.884Z,1017.65
2016-12-10T07:17:24.890Z,1017.7
2016-12-10T07:18:24.896Z,1017.71
2016-12-10T07:19:24.902Z,1017.78
2016-12-10T07:20:24.908Z,1017.76
2016-12-10T07:21:24.914Z,1017.73
2016-12-10T07:22:24.972Z,1017.7
2016-12-10T07:23:24.927Z,1017.66
2016-12-10T07:24:24.933Z,1017.7
2016-12-10T07:25:24.940Z,1017.71
2016-12-10T07:26:24.946Z,1017.66
2016-12-10T07:27:25.002Z,1017.64
2016-12-10T07:28:24.958Z,1017.71
2016-12-10T07:29:24.964Z,1017.7
2016-12-10T07:30:24.971Z,1017.69
2016-12-10T07:31:24.977Z,1017.71
2016-12-10T07:32:24.982Z,1017.74
2016-12-10T07:33:24.989Z,1017.7
2016-12-10T07:34:25.046Z,1017.73
2016-12-10T07:35:25.052Z,1017.72
2016-12-10T07:36:25.008Z,1017.7
2016-12-10T07:37:25.012Z,1017.69
2016-12-10T07:38:25.020Z,1017.62
2016-12-10T07:39:25.026Z,1017.6
2016-12-10T07:40:25.032Z,1017.6
2016-12-10T07:41:25.038Z,1017.58
2016-12-10T07:42:25.043Z,1017.63
2016-12-10T07:43:25.049Z,1017.59
2016-12-10T07:44:25.058Z,1017.54
2016-12-10T07:45:25.063Z,1017.55
2016-12-10T07:46:25.068Z,1017.51
2016-12-10T07:47:25.127Z,1017.5
2016-12-10T07:48:25.081Z,1017.52
2016-12-10T07:49:25.087Z,1017.64
2016-12-10T07:50:25.093Z,1017.64
2016-12-10T07:51:25.100Z,1017.67
2016-12-10T07:52:25.154Z,1017.6
2016-12-10T07:53:25.111Z,1017.54
2016-12-10T07:54:25.117Z,1017.56
2016-12-10T07:55:25.123Z,1017.64
2016-12-10T07:56:25.129Z,1017.6
2016-12-10T07:57:25.135Z,1017.59
2016-12-10T07:58:25.142Z,1017.74
2016-12-10T07:59:25.147Z,1017.71
2016-12-10T08:00:25.154Z,1017.72
2016-12-10T08:01:25.960Z,1017.7
2016-12-10T08:02:25.166Z,1017.72
2016-12-10T08:03:25.173Z,1017.75
2016-12-10T08:04:25.176Z,1017.84
2016-12-10T08:05:25.184Z,1017.78
2016-12-10T08:06:25.192Z,1017.81
2016-12-10T08:07:25.197Z,1017.8
2016-12-10T08:08:25.254Z,1017.8
2016-12-10T08:09:25.210Z,1017.78
2016-12-10T08:10:25.218Z,1017.8
2016-12-10T08:11:25.222Z,1017.79
2016-12-10T08:12:25.228Z,1017.83
2016-12-10T08:13:25.235Z,1017.71
2016-12-10T08:14:25.242Z,1017.7
2016-12-10T08:15:25.248Z,1017.66
2016-12-10T08:16:25.255Z,1017.69
2016-12-10T08:17:25.261Z,1017.65
2016-12-10T08:18:25.267Z,1017.58
2016-12-10T08:19:25.273Z,1017.63
2016-12-10T08:20:25.283Z,1017.61
2016-12-10T08:21:25.288Z,1017.72
2016-12-10T08:22:25.293Z,1017.64
2016-12-10T08:23:25.499Z,1017.63
2016-12-10T08:24:25.307Z,1017.57
2016-12-10T08:25:25.315Z,1017.58
2016-12-10T08:26:25.317Z,1017.61
2016-12-10T08:27:25.327Z,1017.57
2016-12-10T08:28:25.334Z,1017.65
2016-12-10T08:29:25.340Z,1017.6
2016-12-10T08:30:25.346Z,1017.55
2016-12-10T08:31:25.352Z,1017.64
2016-12-10T08:32:25.359Z,1017.62
2016-12-10T08:33:25.364Z,1017.62
2016-12-10T08:34:25.372Z,1017.66
2016-12-10T08:35:25.379Z,1017.59
2016-12-10T08:36:25.385Z,1017.62
2016-12-10T08:37:25.392Z,1017.53
2016-12-10T08:38:25.496Z,1017.61
2016-12-10T08:39:25.405Z,1017.62
2016-12-10T08:40:25.413Z,1017.61
2016-12-10T08:41:25.416Z,1017.62
2016-12-10T08:42:25.425Z,1017.63
2016-12-10T08:43:25.432Z,1017.57
2016-12-10T08:44:25.437Z,1017.55
2016-12-10T08:45:25.444Z,1017.53
2016-12-10T08:46:25.453Z,1017.54
2016-12-10T08:47:26.460Z,1017.59
2016-12-10T08:48:25.462Z,1017.6
2016-12-10T08:49:25.471Z,1017.64
2016-12-10T08:50:25.477Z,1017.63
2016-12-10T08:51:25.485Z,1017.67
2016-12-10T08:52:25.490Z,1017.65
2016-12-10T08:53:25.496Z,1017.7
2016-12-10T08:54:25.503Z,1017.63
2016-12-10T08:55:25.561Z,1017.66
2016-12-10T08:56:25.518Z,1017.73
2016-12-10T08:57:25.525Z,1017.77
2016-12-10T08:58:25.532Z,1017.74
2016-12-10T08:59:25.539Z,1017.73
2016-12-10T09:00:25.595Z,1017.72
2016-12-10T09:01:25.551Z,1017.7
2016-12-10T09:02:25.563Z,1017.76
2016-12-10T09:03:25.564Z,1017.71
2016-12-10T09:04:25.571Z,1017.76
2016-12-10T09:05:25.578Z,1017.71
2016-12-10T09:06:25.584Z,1017.67
2016-12-10T09:07:25.591Z,1017.63
2016-12-10T09:08:25.598Z,1017.67
2016-12-10T09:09:26.155Z,1017.69
2016-12-10T09:10:25.611Z,1017.7
2016-12-10T09:11:25.619Z,1017.73
2016-12-10T09:12:25.624Z,1017.63
2016-12-10T09:13:25.632Z,1017.63
2016-12-10T09:14:25.637Z,1017.71
2016-12-10T09:15:25.644Z,1017.67
2016-12-10T09:16:25.654Z,1017.66
2016-12-10T09:17:25.659Z,1017.66
2016-12-10T09:18:25.664Z,1017.62
2016-12-10T09:19:25.723Z,1017.64
2016-12-10T09:20:25.679Z,1017.66
2016-12-10T09:21:25.685Z,1017.71
2016-12-10T09:22:25.692Z,1017.71
2016-12-10T09:23:25.699Z,1017.75
2016-12-10T09:24:26.156Z,1017.73
2016-12-10T09:25:25.713Z,1017.75
2016-12-10T09:26:25.721Z,1017.76
2016-12-10T09:27:25.727Z,1017.75
2016-12-10T09:28:25.732Z,1017.71
2016-12-10T09:29:25.741Z,1017.72
2016-12-10T09:30:25.748Z,1017.66
2016-12-10T09:31:25.755Z,1017.67
2016-12-10T09:32:25.762Z,1017.67
2016-12-10T09:33:26.920Z,1017.71
2016-12-10T09:34:25.775Z,1017.71
2016-12-10T09:35:25.786Z,1017.7
2016-12-10T09:36:25.788Z,1017.7
2016-12-10T09:37:25.797Z,1017.71
2016-12-10T09:38:25.803Z,1017.75
2016-12-10T09:39:25.809Z,1017.78
2016-12-10T09:40:25.815Z,1017.71
2016-12-10T09:41:25.824Z,1017.84
2016-12-10T09:42:25.830Z,1017.78
2016-12-10T09:43:25.835Z,1017.78
2016-12-10T09:44:25.843Z,1017.72
2016-12-10T09:45:25.851Z,1017.67
2016-12-10T09:46:25.857Z,1017.7
2016-12-10T09:47:25.865Z,1017.68
2016-12-10T09:48:25.871Z,1017.69
2016-12-10T09:49:25.879Z,1017.69
2016-12-10T09:50:25.885Z,1017.7
2016-12-10T09:51:25.892Z,1017.69
2016-12-10T09:52:25.898Z,1017.71
2016-12-10T09:53:25.907Z,1017.7
2016-12-10T09:54:25.913Z,1017.73
2016-12-10T09:55:25.919Z,1017.73
2016-12-10T09:56:25.976Z,1017.73
2016-12-10T09:57:26.836Z,1017.72
2016-12-10T09:58:25.940Z,1017.73
2016-12-10T09:59:25.948Z,1017.72
2016-12-10T10:00:26.005Z,1017.71
2016-12-10T10:01:25.962Z,1017.73
2016-12-10T10:02:25.968Z,1017.84
2016-12-10T10:03:25.976Z,1017.84
2016-12-10T10:04:25.983Z,1017.78
2016-12-10T10:05:25.990Z,1017.81
2016-12-10T10:06:25.999Z,1017.83
2016-12-10T10:07:26.004Z,1017.88
2016-12-10T10:08:26.010Z,1017.89
2016-12-10T10:09:26.017Z,1017.82
2016-12-10T10:10:26.026Z,1017.87
2016-12-10T10:11:26.032Z,1017.87
2016-12-10T10:12:26.038Z,1017.78
2016-12-10T10:13:26.046Z,1017.75
2016-12-10T10:14:26.053Z,1017.75
2016-12-10T10:15:26.061Z,1017.77
2016-12-10T10:16:26.066Z,1017.76
2016-12-10T10:17:26.073Z,1017.75
2016-12-10T10:18:26.080Z,1017.65
2016-12-10T10:19:26.939Z,1017.61
2016-12-10T10:20:26.095Z,1017.6
2016-12-10T10:21:26.100Z,1017.58
2016-12-10T10:22:26.109Z,1017.54
2016-12-10T10:23:26.114Z,1017.52
2016-12-10T10:24:26.131Z,1017.51
2016-12-10T10:25:26.133Z,1017.57
2016-12-10T10:26:26.137Z,1017.54
2016-12-10T10:27:26.144Z,1017.49
2016-12-10T10:28:26.200Z,1017.5
2016-12-10T10:29:26.158Z,1017.52
2016-12-10T10:30:26.165Z,1017.53
2016-12-10T10:31:26.173Z,1017.5
2016-12-10T10:32:26.178Z,1017.52
2016-12-10T10:33:26.186Z,1017.49
2016-12-10T10:34:26.193Z,1017.57
2016-12-10T10:35:26.198Z,1017.59
2016-12-10T10:36:26.207Z,1017.62
2016-12-10T10:37:26.214Z,1017.68
2016-12-10T10:38:26.220Z,1017.62
2016-12-10T10:39:26.225Z,1017.59
2016-12-10T10:40:26.235Z,1017.56
2016-12-10T10:41:27.042Z,1017.57
2016-12-10T10:42:26.247Z,1017.59
2016-12-10T10:43:26.255Z,1017.58
2016-12-10T10:44:26.310Z,1017.64
2016-12-10T10:45:26.318Z,1017.65
2016-12-10T10:46:26.276Z,1017.66
2016-12-10T10:47:26.284Z,1017.66
2016-12-10T10:48:26.290Z,1017.64
2016-12-10T10:49:26.297Z,1017.72
2016-12-10T10:50:26.305Z,1017.72
2016-12-10T10:51:26.311Z,1017.74
2016-12-10T10:52:26.318Z,1017.74
2016-12-10T10:53:26.324Z,1017.64
2016-12-10T10:54:26.333Z,1017.58
2016-12-10T10:55:26.340Z,1017.59
2016-12-10T10:56:26.345Z,1017.65
2016-12-10T10:57:26.351Z,1017.68
2016-12-10T10:58:26.359Z,1017.72
2016-12-10T10:59:26.367Z,1017.72
2016-12-10T11:00:26.375Z,1017.73
2016-12-10T11:01:26.381Z,1017.71
2016-12-10T11:02:26.389Z,1017.68
2016-12-10T11:03:26.696Z,1017.69
2016-12-10T11:04:26.403Z,1017.59
2016-12-10T11:05:26.410Z,1017.6
2016-12-10T11:06:26.417Z,1017.55
2016-12-10T11:07:26.423Z,1017.48
2016-12-10T11:08:26.432Z,1017.47
2016-12-10T11:09:26.438Z,1017.45
2016-12-10T11:10:26.444Z,1017.5
2016-12-10T11:11:26.451Z,1017.51
2016-12-10T11:12:26.459Z,1017.51
2016-12-10T11:13:26.471Z,1017.41
2016-12-10T11:14:26.473Z,1017.4
2016-12-10T11:15:26.480Z,1017.32
2016-12-10T11:16:26.494Z,1017.32
2016-12-10T11:17:26.495Z,1017.36
2016-12-10T11:18:26.555Z,1017.33
2016-12-10T11:19:26.508Z,1017.35
2016-12-10T11:20:26.514Z,1017.4
2016-12-10T11:21:26.522Z,1017.38
2016-12-10T11:22:26.529Z,1017.37
2016-12-10T11:23:26.536Z,1017.33
2016-12-10T11:24:26.593Z,1017.27
2016-12-10T11:25:26.549Z,1017.32
2016-12-10T11:26:26.557Z,1017.3
2016-12-10T11:27:27.565Z,1017.28
2016-12-10T11:28:26.571Z,1017.28
2016-12-10T11:29:26.578Z,1017.3
2016-12-10T11:30:26.587Z,1017.32
2016-12-10T11:31:26.591Z,1017.32
2016-12-10T11:32:26.599Z,1017.24
2016-12-10T11:33:26.606Z,1017.32
2016-12-10T11:34:26.612Z,1017.27
2016-12-10T11:35:26.621Z,1017.3
2016-12-10T11:36:26.678Z,1017.3
2016-12-10T11:37:26.634Z,1017.23
2016-12-10T11:38:26.642Z,1017.27
2016-12-10T11:39:26.648Z,1017.28
2016-12-10T11:40:26.655Z,1017.36
2016-12-10T11:41:26.713Z,1017.4
2016-12-10T11:42:26.669Z,1017.45
2016-12-10T11:43:26.676Z,1017.42
2016-12-10T11:44:26.732Z,1017.38
2016-12-10T11:45:26.741Z,1017.37
2016-12-10T11:46:26.698Z,1017.37
2016-12-10T11:47:26.704Z,1017.35
2016-12-10T11:48:26.712Z,1017.33
2016-12-10T11:49:27.770Z,1017.36
2016-12-10T11:50:26.727Z,1017.38
2016-12-10T11:51:26.733Z,1017.32
2016-12-10T11:52:26.740Z,1017.37
2016-12-10T11:53:26.746Z,1017.39
2016-12-10T11:54:26.754Z,1017.42
2016-12-10T11:55:26.761Z,1017.39
2016-12-10T11:56:26.766Z,1017.41
2016-12-10T11:57:26.777Z,1017.46
2016-12-10T11:58:26.784Z,1017.43
2016-12-10T11:59:26.789Z,1017.39
2016-12-10T12:00:26.796Z,1017.33
2016-12-10T12:01:26.805Z,1017.33
2016-12-10T12:02:26.810Z,1017.35
2016-12-10T12:03:26.817Z,1017.31
2016-12-10T12:04:27.827Z,1017.33
2016-12-10T12:05:26.882Z,1017.31
2016-12-10T12:06:26.839Z,1017.33
2016-12-10T12:07:26.846Z,1017.31